createdAt,value
2023-02-15T00:02:03.430Z,19.83
2023-02-15T00:04:51.622Z,34.10
2023-02-15T00:07:19.976Z,26.00
2023-02-15T00:09:47.473Z,23.83
2023-02-15T00:12:14.701Z,38.30
2023-02-15T00:14:41.341Z,41.80
2023-02-15T00:17:08.225Z,41.83
2023-02-15T00:19:34.960Z,37.10
2023-02-15T00:22:01.682Z,25.87
2023-02-15T00:24:28.513Z,21.43
2023-02-15T00:26:55.177Z,19.70
2023-02-15T00:29:22.592Z,20.10
2023-02-15T00:31:49.394Z,21.93
2023-02-15T00:34:24.517Z,37.50
2023-02-15T00:36:51.684Z,33.20
2023-02-15T00:39:18.947Z,23.90
2023-02-15T00:41:47.170Z,21.50
2023-02-15T00:44:14.589Z,27.70
2023-02-15T00:46:41.353Z,30.00
2023-02-15T00:49:08.338Z,26.83
2023-02-15T00:51:35.135Z,27.10
2023-02-15T00:54:02.147Z,28.20
2023-02-15T00:56:29.533Z,29.47
2023-02-15T00:58:56.606Z,30.77
2023-02-15T01:01:24.514Z,30.70
2023-02-15T01:03:51.664Z,25.23
2023-02-15T01:06:19.045Z,20.23
2023-02-15T01:08:47.125Z,22.40
2023-02-15T01:11:23.232Z,31.57
2023-02-15T01:13:56.078Z,24.80
2023-02-15T01:16:24.672Z,22.80
2023-02-15T01:18:51.610Z,22.67
2023-02-15T01:21:21.187Z,20.43
2023-02-15T01:23:48.276Z,21.73
2023-02-15T01:26:15.676Z,27.70
2023-02-15T01:28:42.735Z,16.40
2023-02-15T01:31:13.462Z,14.07
2023-02-15T01:33:40.276Z,13.70
2023-02-15T01:36:07.414Z,15.37
2023-02-15T01:38:35.467Z,17.40
2023-02-15T01:41:20.790Z,20.27
2023-02-15T01:43:50.765Z,39.80
2023-02-15T01:46:20.197Z,22.07
2023-02-15T01:48:55.036Z,18.10
2023-02-15T01:51:25.593Z,13.30
2023-02-15T01:54:02.376Z,36.87
2023-02-15T01:56:33.303Z,28.27
2023-02-15T01:59:04.069Z,35.23
2023-02-15T02:01:30.941Z,30.33
2023-02-15T02:04:08.173Z,27.67
2023-02-15T02:06:37.335Z,20.00
2023-02-15T02:09:04.210Z,14.20
2023-02-15T02:11:31.011Z,13.73
2023-02-15T02:13:57.932Z,16.33
2023-02-15T02:16:46.692Z,18.23
2023-02-15T02:19:31.853Z,23.00
2023-02-15T02:22:37.313Z,18.50
2023-02-15T02:25:04.009Z,15.68
2023-02-15T02:27:48.576Z,14.83
2023-02-15T02:30:28.985Z,15.27
2023-02-15T02:33:28.075Z,18.17
2023-02-15T02:36:19.033Z,16.20
2023-02-15T02:39:24.885Z,17.63
2023-02-15T02:42:06.468Z,24.10
2023-02-15T02:44:38.417Z,24.03
2023-02-15T02:47:22.621Z,17.07
2023-02-15T02:49:53.024Z,16.10
2023-02-15T02:52:43.023Z,21.10
2023-02-15T02:55:13.149Z,20.10
2023-02-15T02:57:51.690Z,21.07
2023-02-15T03:00:21.232Z,23.67
2023-02-15T03:02:52.570Z,21.73
2023-02-15T03:05:26.306Z,17.27
2023-02-15T03:07:57.683Z,21.00
2023-02-15T03:10:25.562Z,15.00
2023-02-15T03:12:53.479Z,15.50
2023-02-15T03:15:52.032Z,13.90
2023-02-15T03:18:23.144Z,14.60
2023-02-15T03:20:51.290Z,14.60
2023-02-15T03:23:22.674Z,15.07
2023-02-15T03:25:53.064Z,18.07
2023-02-15T03:28:24.404Z,18.37
2023-02-15T03:30:56.673Z,12.20
2023-02-15T03:33:24.927Z,12.07
2023-02-15T03:36:02.729Z,9.67
2023-02-15T03:38:37.497Z,20.30
2023-02-15T03:43:53.150Z,16.40
2023-02-15T03:46:34.866Z,16.40
2023-02-15T03:49:08.204Z,18.00
2023-02-15T03:51:39.197Z,19.13
2023-02-15T03:54:10.158Z,25.03
2023-02-15T03:56:39.652Z,20.87
2023-02-15T03:59:25.103Z,16.13
2023-02-15T04:02:03.756Z,23.23
2023-02-15T04:04:34.874Z,25.13
2023-02-15T04:07:02.836Z,29.00
2023-02-15T04:09:48.679Z,33.07
2023-02-15T04:12:15.366Z,32.83
2023-02-15T04:15:00.705Z,33.13
2023-02-15T04:17:27.751Z,28.73
2023-02-15T04:20:12.816Z,29.37
2023-02-15T04:22:58.237Z,30.70
2023-02-15T04:25:25.167Z,25.43
2023-02-15T04:27:54.025Z,24.03
2023-02-15T04:30:25.126Z,27.30
2023-02-15T04:32:52.310Z,25.07
2023-02-15T04:35:19.272Z,20.37
2023-02-15T04:37:46.061Z,22.50
2023-02-15T04:40:17.311Z,23.70
2023-02-15T04:42:47.864Z,29.47
2023-02-15T04:45:14.574Z,26.17
2023-02-15T04:47:42.400Z,27.40
2023-02-15T04:50:09.352Z,25.23
2023-02-15T04:52:36.349Z,34.33
2023-02-15T04:55:03.451Z,39.30
2023-02-15T04:57:30.150Z,49.50
2023-02-15T04:59:56.856Z,55.33
2023-02-15T05:02:23.533Z,45.50
2023-02-15T05:04:50.440Z,35.97
2023-02-15T05:07:17.446Z,30.87
2023-02-15T05:09:44.188Z,28.97
2023-02-15T05:12:10.935Z,28.83
2023-02-15T05:14:38.403Z,31.40
2023-02-15T05:17:06.351Z,27.90
2023-02-15T05:19:33.422Z,29.57
2023-02-15T05:22:00.462Z,27.63
2023-02-15T05:24:45.712Z,27.33
2023-02-15T05:27:31.927Z,27.90
2023-02-15T05:29:58.689Z,30.10
2023-02-15T05:32:25.678Z,36.37
2023-02-15T05:34:54.883Z,41.10
2023-02-15T05:37:21.545Z,41.90
2023-02-15T05:39:48.243Z,34.17
2023-02-15T05:42:15.043Z,35.97
2023-02-15T05:44:41.767Z,38.40
2023-02-15T05:47:08.851Z,55.07
2023-02-15T05:49:35.711Z,50.90
2023-02-15T05:52:02.615Z,56.60
2023-02-15T05:54:29.331Z,56.57
2023-02-15T05:56:56.044Z,54.23
2023-02-15T05:59:22.749Z,69.60
2023-02-15T06:01:49.451Z,70.83
2023-02-15T06:04:16.194Z,69.27
2023-02-15T06:06:43.096Z,62.27
2023-02-15T06:09:12.236Z,71.00
2023-02-15T06:11:38.950Z,65.57
2023-02-15T06:14:05.659Z,64.70
2023-02-15T06:16:32.457Z,64.10
2023-02-15T06:19:00.378Z,65.27
2023-02-15T06:21:27.080Z,66.30
2023-02-15T06:23:53.840Z,73.30
2023-02-15T06:26:20.552Z,75.17
2023-02-15T06:28:47.264Z,77.33
2023-02-15T06:31:14.112Z,77.10
2023-02-15T06:33:40.876Z,89.27
2023-02-15T06:36:07.823Z,71.77
2023-02-15T06:38:34.639Z,73.53
2023-02-15T06:41:01.393Z,74.80
2023-02-15T06:43:28.063Z,77.17
2023-02-15T06:45:54.842Z,86.63
2023-02-15T06:48:21.507Z,59.47
2023-02-15T06:50:48.329Z,37.03
2023-02-15T06:53:15.038Z,57.27
2023-02-15T06:55:41.686Z,56.17
2023-02-15T06:58:08.467Z,57.60
2023-02-15T07:00:35.128Z,56.42
2023-02-15T07:03:03.110Z,60.25
2023-02-15T07:05:32.635Z,63.50
2023-02-15T07:08:00.165Z,62.95
2023-02-15T07:10:27.867Z,64.88
2023-02-15T07:12:55.012Z,68.15
2023-02-15T07:15:22.498Z,68.22
2023-02-15T07:17:50.284Z,65.97
2023-02-15T07:20:20.126Z,60.75
2023-02-15T07:22:47.132Z,54.80
2023-02-15T07:25:14.420Z,59.50
2023-02-15T07:27:41.836Z,73.50
2023-02-15T07:30:12.382Z,55.15
2023-02-15T07:32:59.234Z,56.63
2023-02-15T07:35:26.404Z,56.40
2023-02-15T07:37:54.167Z,54.55
2023-02-15T07:40:23.471Z,37.05
2023-02-15T07:42:52.200Z,15.13
2023-02-15T07:45:20.270Z,29.38
2023-02-15T07:47:46.931Z,52.70
2023-02-15T07:50:13.591Z,55.63
2023-02-15T07:52:40.299Z,59.83
2023-02-15T07:55:07.260Z,41.42
2023-02-15T07:57:33.884Z,72.85
2023-02-15T08:00:00.543Z,68.43
2023-02-15T08:02:27.234Z,64.47
2023-02-15T08:04:53.890Z,67.25
2023-02-15T08:07:20.549Z,35.28
2023-02-15T08:09:47.205Z,26.27
2023-02-15T08:12:13.931Z,36.10
2023-02-15T08:14:40.696Z,34.08
2023-02-15T08:17:07.641Z,13.48
2023-02-15T08:19:36.485Z,19.92
2023-02-15T08:22:08.168Z,23.63
2023-02-15T08:24:38.283Z,15.57
2023-02-15T08:27:07.092Z,27.15
2023-02-15T08:29:35.169Z,28.58
2023-02-15T08:32:06.241Z,25.63
2023-02-15T08:34:36.195Z,23.05
2023-02-15T08:37:03.554Z,20.17
2023-02-15T08:39:30.397Z,16.52
2023-02-15T08:41:57.102Z,18.77
2023-02-15T08:44:24.091Z,15.73
2023-02-15T08:46:51.212Z,15.13
2023-02-15T08:49:22.861Z,18.55
2023-02-15T08:51:50.449Z,17.33
2023-02-15T08:54:20.251Z,15.80
2023-02-15T08:56:47.664Z,16.95
2023-02-15T08:59:17.380Z,14.18
2023-02-15T09:01:44.485Z,15.95
2023-02-15T09:04:11.523Z,12.25
2023-02-15T09:06:39.889Z,10.73
2023-02-15T09:09:08.477Z,23.92
2023-02-15T09:11:38.525Z,19.05
2023-02-15T09:14:14.632Z,11.90
2023-02-15T09:16:43.444Z,9.48
2023-02-15T09:19:10.230Z,14.63
2023-02-15T09:21:38.890Z,8.75
2023-02-15T09:24:08.537Z,8.02
2023-02-15T09:26:37.456Z,9.77
2023-02-15T09:29:04.988Z,8.15
2023-02-15T09:31:35.008Z,8.98
2023-02-15T09:34:02.717Z,7.70
2023-02-15T09:36:33.243Z,7.75
2023-02-15T09:39:08.580Z,8.40
2023-02-15T09:41:53.859Z,7.88
2023-02-15T09:44:26.260Z,9.45
2023-02-15T09:47:10.962Z,9.25
2023-02-15T09:49:55.213Z,7.43
2023-02-15T09:52:52.962Z,7.13
2023-02-15T09:55:23.117Z,8.98
2023-02-15T09:57:52.417Z,8.40
2023-02-15T10:00:55.352Z,7.43
2023-02-15T10:03:37.820Z,7.70
2023-02-15T10:06:29.450Z,6.13
2023-02-15T10:09:08.109Z,8.65
2023-02-15T10:12:02.616Z,8.38
2023-02-15T10:14:48.044Z,9.50
2023-02-15T10:20:24.532Z,7.93
2023-02-15T10:22:57.252Z,7.88
2023-02-15T10:25:34.620Z,7.68
2023-02-15T10:28:06.771Z,7.63
2023-02-15T10:30:47.611Z,7.80
2023-02-15T10:33:39.115Z,11.48
2023-02-15T10:36:33.503Z,10.02
2023-02-15T10:39:26.585Z,10.15
2023-02-15T10:42:07.461Z,8.30
2023-02-15T10:44:52.247Z,9.15
2023-02-15T10:47:48.210Z,10.82
2023-02-15T10:50:37.592Z,8.95
2023-02-15T10:53:26.080Z,8.98
2023-02-15T10:56:08.081Z,7.85
2023-02-15T10:58:51.290Z,8.93
2023-02-15T11:01:41.178Z,11.50
2023-02-15T11:04:29.524Z,7.90
2023-02-15T11:07:00.828Z,7.25
2023-02-15T11:09:37.931Z,6.35
2023-02-15T11:12:12.692Z,8.32
2023-02-15T11:14:56.524Z,9.02
2023-02-15T11:17:40.729Z,9.95
2023-02-15T11:20:29.502Z,7.53
2023-02-15T11:22:56.211Z,6.55
2023-02-15T11:25:31.711Z,10.15
2023-02-15T11:27:59.828Z,8.10
2023-02-15T11:30:37.392Z,7.47
2023-02-15T11:33:07.725Z,9.25
2023-02-15T11:35:48.418Z,8.13
2023-02-15T11:38:22.701Z,7.88
2023-02-15T11:41:21.400Z,7.65
2023-02-15T11:44:06.596Z,9.68
2023-02-15T11:46:33.392Z,12.02
2023-02-15T11:49:00.199Z,11.10
2023-02-15T11:51:29.974Z,7.63
2023-02-15T11:53:57.277Z,7.82
2023-02-15T11:56:26.618Z,13.43
2023-02-15T11:59:17.389Z,11.65
2023-02-15T12:01:46.120Z,11.70
2023-02-15T12:04:29.603Z,10.30
2023-02-15T12:07:03.136Z,8.82
2023-02-15T12:09:38.852Z,9.68
2023-02-15T12:12:33.870Z,7.28
2023-02-15T12:15:03.714Z,6.53
2023-02-15T12:17:51.609Z,6.47
2023-02-15T12:20:18.234Z,6.82
2023-02-15T12:22:55.878Z,9.00
2023-02-15T12:25:25.911Z,7.45
2023-02-15T12:27:53.070Z,8.27
2023-02-15T12:30:26.176Z,8.07
2023-02-15T12:32:57.429Z,9.38
2023-02-15T12:35:36.975Z,7.32
2023-02-15T12:38:24.687Z,6.60
2023-02-15T12:41:04.271Z,6.65
2023-02-15T12:43:37.035Z,7.07
2023-02-15T12:46:21.971Z,6.88
2023-02-15T12:49:07.605Z,7.05
2023-02-15T12:51:47.780Z,7.28
2023-02-15T12:54:23.928Z,6.72
2023-02-15T12:56:50.691Z,6.70
2023-02-15T12:59:23.118Z,6.60
2023-02-15T13:01:52.577Z,8.27
2023-02-15T13:04:29.642Z,6.07
2023-02-15T13:07:00.789Z,6.85
2023-02-15T13:09:40.689Z,7.78
2023-02-15T13:12:35.283Z,8.82
2023-02-15T13:15:04.109Z,8.25
2023-02-15T13:17:35.857Z,8.20
2023-02-15T13:20:08.354Z,7.40
2023-02-15T13:22:43.355Z,9.02
2023-02-15T13:27:56.395Z,10.75
2023-02-15T13:30:30.209Z,13.30
2023-02-15T13:33:03.144Z,13.10
2023-02-15T13:35:40.835Z,10.88
2023-02-15T13:38:20.183Z,13.98
2023-02-15T13:40:56.386Z,12.02
2023-02-15T13:43:55.374Z,13.65
2023-02-15T13:47:03.337Z,13.63
2023-02-15T13:49:52.172Z,11.68
2023-02-15T13:52:19.259Z,10.50
2023-02-15T13:54:54.604Z,10.30
2023-02-15T13:57:50.344Z,9.55
2023-02-15T14:03:17.059Z,8.55
2023-02-15T14:05:57.313Z,8.57
2023-02-15T14:08:46.739Z,9.32
2023-02-15T14:11:31.388Z,10.55
2023-02-15T14:14:12.342Z,8.45
2023-02-15T14:17:06.289Z,10.05
2023-02-15T14:19:36.246Z,10.10
2023-02-15T14:22:26.687Z,8.35
2023-02-15T14:25:40.320Z,9.93
2023-02-15T14:28:15.940Z,12.15
2023-02-15T14:30:49.755Z,10.43
2023-02-15T14:33:43.792Z,9.55
2023-02-15T14:36:20.600Z,14.75
2023-02-15T14:39:27.818Z,13.40
2023-02-15T14:42:03.415Z,11.75
2023-02-15T14:44:38.817Z,13.48
2023-02-15T14:47:25.131Z,23.17
2023-02-15T14:49:51.815Z,13.27
2023-02-15T14:52:18.519Z,11.88
2023-02-15T14:54:45.124Z,11.43
2023-02-15T14:57:13.041Z,13.38
2023-02-15T14:59:59.439Z,20.17
2023-02-15T15:02:41.115Z,19.98
2023-02-15T15:05:51.989Z,23.83
2023-02-15T15:08:27.595Z,18.00
2023-02-15T15:10:54.303Z,25.92
2023-02-15T15:13:33.018Z,17.45
2023-02-15T15:16:28.871Z,29.15
2023-02-15T15:18:56.049Z,17.35
2023-02-15T15:21:47.769Z,26.50
2023-02-15T15:24:39.607Z,28.38
2023-02-15T15:27:37.377Z,20.33
2023-02-15T15:30:16.125Z,23.70
2023-02-15T15:32:55.276Z,23.40
2023-02-15T15:35:37.907Z,30.20
2023-02-15T15:38:18.210Z,34.55
2023-02-15T15:41:13.316Z,61.78
2023-02-15T15:44:08.091Z,53.03
2023-02-15T15:47:13.084Z,43.87
2023-02-15T15:49:40.097Z,44.03
2023-02-15T15:52:17.258Z,42.63
2023-02-15T15:54:46.174Z,41.30
2023-02-15T15:57:34.532Z,52.65
2023-02-15T16:00:01.738Z,53.50
2023-02-15T16:02:28.820Z,63.35
2023-02-15T16:04:55.550Z,68.75
2023-02-15T16:07:27.159Z,67.60
2023-02-15T16:10:08.448Z,62.05
2023-02-15T16:12:38.151Z,75.82
2023-02-15T16:15:24.655Z,76.37
2023-02-15T16:17:57.805Z,86.13
2023-02-15T16:20:37.669Z,85.50
2023-02-15T16:23:42.943Z,68.40
2023-02-15T16:26:46.698Z,64.72
2023-02-15T16:29:28.230Z,63.73
2023-02-15T16:32:19.435Z,54.73
2023-02-15T16:35:00.942Z,58.87
2023-02-15T16:37:33.212Z,74.43
2023-02-15T16:40:00.268Z,64.13
2023-02-15T16:42:27.516Z,63.00
2023-02-15T16:45:06.326Z,50.17
2023-02-15T16:47:37.303Z,53.40
2023-02-15T16:50:05.449Z,46.10
2023-02-15T16:52:32.610Z,36.60
2023-02-15T16:55:06.611Z,36.93
2023-02-15T16:57:39.263Z,36.60
2023-02-15T17:00:28.108Z,49.27
2023-02-15T17:03:15.076Z,59.40
2023-02-15T17:05:52.598Z,61.33
2023-02-15T17:08:42.827Z,45.93
2023-02-15T17:11:16.791Z,40.40
2023-02-15T17:14:05.877Z,53.50
2023-02-15T17:16:34.358Z,41.37
2023-02-15T17:19:14.060Z,42.30
2023-02-15T17:21:51.415Z,41.97
2023-02-15T17:24:39.554Z,43.97
2023-02-15T17:27:14.128Z,43.73
2023-02-15T17:29:45.014Z,59.47
2023-02-15T17:32:21.959Z,47.00
2023-02-15T17:35:00.242Z,55.10
2023-02-15T17:37:45.441Z,50.73
2023-02-15T17:42:50.378Z,55.43
2023-02-15T17:45:17.825Z,57.60
2023-02-15T17:47:45.928Z,53.80
2023-02-15T17:50:27.500Z,54.50
2023-02-15T17:52:56.608Z,59.33
2023-02-15T17:55:36.658Z,59.13
2023-02-15T17:58:12.052Z,60.23
2023-02-15T18:01:06.257Z,53.90
2023-02-15T18:04:06.489Z,55.10
2023-02-15T18:06:54.532Z,54.33
2023-02-15T18:09:41.594Z,53.63
2023-02-15T18:12:20.929Z,57.77
2023-02-15T18:14:51.381Z,54.70
2023-02-15T18:17:18.516Z,53.20
2023-02-15T18:19:46.731Z,46.67
2023-02-15T18:22:17.219Z,40.93
2023-02-15T18:24:44.172Z,48.83
2023-02-15T18:27:13.529Z,32.97
2023-02-15T18:29:41.039Z,35.10
2023-02-15T18:32:10.875Z,39.00
2023-02-15T18:34:40.442Z,47.13
2023-02-15T18:37:14.103Z,41.73
2023-02-15T18:39:46.926Z,40.83
2023-02-15T18:42:28.991Z,50.23
2023-02-15T18:44:58.609Z,49.47
2023-02-15T18:47:25.923Z,50.90
2023-02-15T18:49:52.983Z,50.13
2023-02-15T18:52:22.930Z,53.83
2023-02-15T18:54:56.103Z,53.63
2023-02-15T18:57:23.835Z,55.85
2023-02-15T18:59:50.572Z,68.87
2023-02-15T19:02:18.917Z,69.00
2023-02-15T19:04:47.039Z,42.47
2023-02-15T19:07:28.096Z,32.03
2023-02-15T19:09:58.345Z,32.97
2023-02-15T19:12:25.362Z,38.83
2023-02-15T19:14:53.028Z,38.97
2023-02-15T19:17:21.785Z,40.00
2023-02-15T19:19:49.645Z,47.93
2023-02-15T19:22:28.609Z,55.10
2023-02-15T19:24:58.414Z,49.37
2023-02-15T19:27:35.145Z,59.90
2023-02-15T19:30:05.551Z,63.03
2023-02-15T19:32:32.252Z,60.67
2023-02-15T19:34:59.108Z,63.67
2023-02-15T19:37:30.810Z,71.07
2023-02-15T19:39:57.560Z,86.50
2023-02-15T19:42:24.502Z,52.47
2023-02-15T19:44:51.953Z,45.83
2023-02-15T19:47:19.628Z,43.50
2023-02-15T19:49:46.396Z,48.43
2023-02-15T19:52:19.724Z,58.43
2023-02-15T19:54:48.068Z,60.53
2023-02-15T19:57:14.824Z,52.43
2023-02-15T19:59:41.989Z,54.40
2023-02-15T20:02:18.174Z,43.27
2023-02-15T20:04:44.935Z,39.00
2023-02-15T20:07:37.976Z,51.37
2023-02-15T20:10:56.258Z,54.70
2023-02-15T20:13:23.154Z,46.23
2023-02-15T20:15:50.966Z,58.30
2023-02-15T20:18:19.775Z,48.33
2023-02-15T20:20:51.861Z,51.30
2023-02-15T20:23:30.457Z,58.03
2023-02-15T20:26:00.711Z,71.93
2023-02-15T20:28:31.051Z,62.60
2023-02-15T20:30:58.247Z,56.17
2023-02-15T20:33:25.010Z,57.07
2023-02-15T20:35:52.036Z,50.30
2023-02-15T20:38:19.997Z,55.37
2023-02-15T20:41:05.621Z,45.13
2023-02-15T20:43:33.257Z,45.80
2023-02-15T20:46:01.004Z,36.53
2023-02-15T20:48:27.958Z,46.07
2023-02-15T20:50:55.584Z,41.53
2023-02-15T20:53:22.596Z,46.97
2023-02-15T20:55:49.414Z,45.83
2023-02-15T20:58:28.604Z,39.70
2023-02-15T21:00:57.675Z,44.07
2023-02-15T21:03:31.097Z,41.00
2023-02-15T21:05:59.419Z,37.90
2023-02-15T21:08:26.983Z,37.27
2023-02-15T21:10:54.690Z,34.47
2023-02-15T21:13:35.460Z,34.30
2023-02-15T21:16:02.979Z,36.77
2023-02-15T21:18:33.317Z,40.33
2023-02-15T21:21:06.215Z,49.90
2023-02-15T21:23:38.431Z,48.10
2023-02-15T21:26:21.832Z,46.03
2023-02-15T21:28:50.404Z,45.83
2023-02-15T21:31:25.617Z,42.53
2023-02-15T21:33:52.849Z,41.43
2023-02-15T21:36:22.539Z,48.07
2023-02-15T21:38:49.748Z,47.07
2023-02-15T21:41:40.780Z,44.97
2023-02-15T21:44:38.135Z,40.30
2023-02-15T21:47:24.473Z,43.03
2023-02-15T21:49:53.000Z,45.50
2023-02-15T21:52:23.530Z,41.70
2023-02-15T21:54:50.291Z,39.47
2023-02-15T21:57:18.724Z,35.13
2023-02-15T21:59:47.179Z,39.77
2023-02-15T22:02:28.055Z,37.17
2023-02-15T22:04:55.687Z,37.43
2023-02-15T22:07:22.405Z,38.27
2023-02-15T22:09:49.302Z,45.93
2023-02-15T22:12:18.408Z,37.97
2023-02-15T22:14:50.626Z,37.20
2023-02-15T22:17:22.822Z,39.17
2023-02-15T22:19:50.855Z,78.67
2023-02-15T22:22:18.377Z,47.07
2023-02-15T22:24:46.037Z,58.27
2023-02-15T22:27:23.461Z,72.30
2023-02-15T22:29:50.626Z,71.07
2023-02-15T22:32:23.153Z,54.00
2023-02-15T22:34:52.246Z,60.20
2023-02-15T22:37:19.217Z,45.80
2023-02-15T22:39:45.923Z,35.90
2023-02-15T22:42:27.685Z,39.43
2023-02-15T22:44:56.082Z,39.27
2023-02-15T22:47:26.356Z,37.03
2023-02-15T22:49:54.632Z,35.10
2023-02-15T22:52:21.714Z,36.97
2023-02-15T22:54:48.501Z,34.53
2023-02-15T22:57:32.096Z,38.87
2023-02-15T23:00:00.612Z,39.27
2023-02-15T23:02:27.468Z,32.17
2023-02-15T23:04:54.278Z,31.33
2023-02-15T23:07:23.164Z,34.57
2023-02-15T23:09:51.193Z,33.37
2023-02-15T23:12:49.791Z,32.33
2023-02-15T23:15:16.523Z,30.57
2023-02-15T23:17:43.133Z,27.37
2023-02-15T23:20:16.942Z,24.87
2023-02-15T23:22:44.321Z,23.63
2023-02-15T23:25:12.283Z,24.73
2023-02-15T23:27:57.301Z,26.43
2023-02-15T23:30:24.429Z,27.30
2023-02-15T23:32:54.402Z,25.20
2023-02-15T23:35:21.207Z,23.47
2023-02-15T23:37:47.874Z,22.23
2023-02-15T23:40:38.345Z,25.23
2023-02-15T23:43:06.825Z,23.47
2023-02-15T23:45:38.301Z,22.13
2023-02-15T23:48:32.286Z,21.37
2023-02-15T23:50:59.818Z,23.03
2023-02-15T23:53:26.555Z,25.27
2023-02-15T23:55:53.512Z,27.47
2023-02-15T23:58:23.774Z,28.90
